sensor_id;sensor_type;location;lat;lon;timestamp;temperature;humidity
18287;DHT22;9269;50.838;12.094;2023-06-01T00:02:04;19.70;26.90
18287;DHT22;9269;50.838;12.094;2023-06-01T00:04:41;19.70;26.90
18287;DHT22;9269;50.838;12.094;2023-06-01T00:07:11;19.60;26.70
18287;DHT22;9269;50.838;12.094;2023-06-01T00:09:47;19.60;26.90
18287;DHT22;9269;50.838;12.094;2023-06-01T00:12:16;19.60;26.80
18287;DHT22;9269;50.838;12.094;2023-06-01T00:14:52;19.60;26.80
18287;DHT22;9269;50.838;12.094;2023-06-01T00:17:22;19.60;27.30
18287;DHT22;9269;50.838;12.094;2023-06-01T00:19:52;19.50;27.20
18287;DHT22;9269;50.838;12.094;2023-06-01T00:22:26;19.50;27.20
18287;DHT22;9269;50.838;12.094;2023-06-01T00:24:57;19.30;27.00
18287;DHT22;9269;50.838;12.094;2023-06-01T00:27:31;19.40;27.00
18287;DHT22;9269;50.838;12.094;2023-06-01T00:30:00;19.30;27.70
18287;DHT22;9269;50.838;12.094;2023-06-01T00:32:31;19.30;27.50
18287;DHT22;9269;50.838;12.094;2023-06-01T00:35:02;19.30;27.40
18287;DHT22;9269;50.838;12.094;2023-06-01T00:37:34;19.30;27.50
18287;DHT22;9269;50.838;12.094;2023-06-01T00:40:03;19.30;27.50
18287;DHT22;9269;50.838;12.094;2023-06-01T00:42:33;19.20;27.60
18287;DHT22;9269;50.838;12.094;2023-06-01T00:45:10;19.10;27.70
18287;DHT22;9269;50.838;12.094;2023-06-01T00:47:44;19.20;27.40
18287;DHT22;9269;50.838;12.094;2023-06-01T00:50:14;19.20;28.00
18287;DHT22;9269;50.838;12.094;2023-06-01T00:52:43;19.10;27.40
18287;DHT22;9269;50.838;12.094;2023-06-01T00:55:14;19.00;27.70
18287;DHT22;9269;50.838;12.094;2023-06-01T00:57:43;19.10;27.80
18287;DHT22;9269;50.838;12.094;2023-06-01T01:00:13;19.00;27.70
18287;DHT22;9269;50.838;12.094;2023-06-01T01:02:44;19.00;28.00
18287;DHT22;9269;50.838;12.094;2023-06-01T01:05:16;19.10;27.80
18287;DHT22;9269;50.838;12.094;2023-06-01T01:07:55;19.00;28.10
18287;DHT22;9269;50.838;12.094;2023-06-01T01:10:31;19.00;28.20
18287;DHT22;9269;50.838;12.094;2023-06-01T01:13:13;18.90;27.90
18287;DHT22;9269;50.838;12.094;2023-06-01T01:15:53;18.90;28.30
18287;DHT22;9269;50.838;12.094;2023-06-01T01:18:30;18.90;28.20
18287;DHT22;9269;50.838;12.094;2023-06-01T01:21:08;18.80;28.10
18287;DHT22;9269;50.838;12.094;2023-06-01T01:24:43;18.80;28.40
18287;DHT22;9269;50.838;12.094;2023-06-01T01:27:43;18.80;28.10
18287;DHT22;9269;50.838;12.094;2023-06-01T01:30:26;18.60;28.10
18287;DHT22;9269;50.838;12.094;2023-06-01T01:32:58;18.70;28.30
18287;DHT22;9269;50.838;12.094;2023-06-01T01:35:34;18.60;28.50
18287;DHT22;9269;50.838;12.094;2023-06-01T01:38:06;18.60;28.40
18287;DHT22;9269;50.838;12.094;2023-06-01T01:40:35;18.60;28.70
18287;DHT22;9269;50.838;12.094;2023-06-01T01:43:10;18.60;28.50
18287;DHT22;9269;50.838;12.094;2023-06-01T01:45:53;18.60;28.50
18287;DHT22;9269;50.838;12.094;2023-06-01T01:48:47;18.60;28.70
18287;DHT22;9269;50.838;12.094;2023-06-01T01:51:42;18.50;29.00
18287;DHT22;9269;50.838;12.094;2023-06-01T01:54:14;18.50;28.90
18287;DHT22;9269;50.838;12.094;2023-06-01T01:56:50;18.50;28.40
18287;DHT22;9269;50.838;12.094;2023-06-01T01:59:21;18.50;28.90
18287;DHT22;9269;50.838;12.094;2023-06-01T02:01:52;18.50;28.80
18287;DHT22;9269;50.838;12.094;2023-06-01T02:04:23;18.50;29.00
18287;DHT22;9269;50.838;12.094;2023-06-01T02:06:53;18.40;28.90
18287;DHT22;9269;50.838;12.094;2023-06-01T02:09:22;18.50;29.00
18287;DHT22;9269;50.838;12.094;2023-06-01T02:11:50;18.30;29.10
18287;DHT22;9269;50.838;12.094;2023-06-01T02:14:19;18.40;28.90
18287;DHT22;9269;50.838;12.094;2023-06-01T02:16:48;18.30;29.10
18287;DHT22;9269;50.838;12.094;2023-06-01T02:19:19;18.30;29.10
18287;DHT22;9269;50.838;12.094;2023-06-01T02:21:47;18.20;29.00
18287;DHT22;9269;50.838;12.094;2023-06-01T02:24:16;18.30;28.80
18287;DHT22;9269;50.838;12.094;2023-06-01T02:26:45;18.20;29.10
18287;DHT22;9269;50.838;12.094;2023-06-01T02:29:15;18.10;30.60
18287;DHT22;9269;50.838;12.094;2023-06-01T02:31:46;18.20;29.50
18287;DHT22;9269;50.838;12.094;2023-06-01T02:34:15;18.20;29.60
18287;DHT22;9269;50.838;12.094;2023-06-01T02:36:45;18.10;31.00
18287;DHT22;9269;50.838;12.094;2023-06-01T02:39:15;18.20;29.50
18287;DHT22;9269;50.838;12.094;2023-06-01T02:41:45;18.10;30.60
18287;DHT22;9269;50.838;12.094;2023-06-01T02:44:13;18.10;30.20
18287;DHT22;9269;50.838;12.094;2023-06-01T02:46:42;18.10;31.10
18287;DHT22;9269;50.838;12.094;2023-06-01T02:49:11;18.10;31.00
18287;DHT22;9269;50.838;12.094;2023-06-01T02:51:39;18.10;30.30
18287;DHT22;9269;50.838;12.094;2023-06-01T02:54:09;18.00;31.00
18287;DHT22;9269;50.838;12.094;2023-06-01T02:56:38;18.00;30.70
18287;DHT22;9269;50.838;12.094;2023-06-01T02:59:06;18.00;31.10
18287;DHT22;9269;50.838;12.094;2023-06-01T03:01:35;18.00;31.10
18287;DHT22;9269;50.838;12.094;2023-06-01T03:04:04;18.00;30.90
18287;DHT22;9269;50.838;12.094;2023-06-01T03:06:32;17.90;30.70
18287;DHT22;9269;50.838;12.094;2023-06-01T03:09:05;17.80;31.10
18287;DHT22;9269;50.838;12.094;2023-06-01T03:11:42;17.90;31.30
18287;DHT22;9269;50.838;12.094;2023-06-01T03:14:10;17.90;31.00
18287;DHT22;9269;50.838;12.094;2023-06-01T03:16:39;17.70;31.20
18287;DHT22;9269;50.838;12.094;2023-06-01T03:19:08;17.60;31.20
18287;DHT22;9269;50.838;12.094;2023-06-01T03:21:37;17.70;31.50
18287;DHT22;9269;50.838;12.094;2023-06-01T03:24:07;17.60;31.30
18287;DHT22;9269;50.838;12.094;2023-06-01T03:26:36;17.70;31.40
18287;DHT22;9269;50.838;12.094;2023-06-01T03:29:06;17.60;31.10
18287;DHT22;9269;50.838;12.094;2023-06-01T03:31:34;17.70;31.60
18287;DHT22;9269;50.838;12.094;2023-06-01T03:34:03;17.50;31.20
18287;DHT22;9269;50.838;12.094;2023-06-01T03:36:32;17.50;31.70
18287;DHT22;9269;50.838;12.094;2023-06-01T03:39:03;17.50;31.80
18287;DHT22;9269;50.838;12.094;2023-06-01T03:41:35;17.60;31.60
18287;DHT22;9269;50.838;12.094;2023-06-01T03:44:04;17.50;31.30
18287;DHT22;9269;50.838;12.094;2023-06-01T03:46:34;17.60;31.60
18287;DHT22;9269;50.838;12.094;2023-06-01T03:49:03;17.50;31.50
18287;DHT22;9269;50.838;12.094;2023-06-01T03:51:32;17.50;31.70
18287;DHT22;9269;50.838;12.094;2023-06-01T03:54:01;17.40;31.30
18287;DHT22;9269;50.838;12.094;2023-06-01T03:56:29;17.60;31.30
18287;DHT22;9269;50.838;12.094;2023-06-01T03:58:58;17.50;31.60
18287;DHT22;9269;50.838;12.094;2023-06-01T04:01:27;17.50;31.60
18287;DHT22;9269;50.838;12.094;2023-06-01T04:03:58;17.50;31.50
18287;DHT22;9269;50.838;12.094;2023-06-01T04:06:27;17.50;31.50
18287;DHT22;9269;50.838;12.094;2023-06-01T04:08:56;17.50;31.80
18287;DHT22;9269;50.838;12.094;2023-06-01T04:11:28;17.60;31.80
18287;DHT22;9269;50.838;12.094;2023-06-01T04:13:56;17.60;31.40
18287;DHT22;9269;50.838;12.094;2023-06-01T04:16:25;17.60;31.60
18287;DHT22;9269;50.838;12.094;2023-06-01T04:18:54;17.50;31.40
18287;DHT22;9269;50.838;12.094;2023-06-01T04:21:24;17.80;31.20
18287;DHT22;9269;50.838;12.094;2023-06-01T04:23:52;17.80;31.40
18287;DHT22;9269;50.838;12.094;2023-06-01T04:26:21;17.80;31.40
18287;DHT22;9269;50.838;12.094;2023-06-01T04:28:49;17.80;31.50
18287;DHT22;9269;50.838;12.094;2023-06-01T04:31:20;17.90;31.60
18287;DHT22;9269;50.838;12.094;2023-06-01T04:33:49;17.90;31.40
18287;DHT22;9269;50.838;12.094;2023-06-01T04:36:21;17.90;31.60
18287;DHT22;9269;50.838;12.094;2023-06-01T04:38:52;18.00;31.30
18287;DHT22;9269;50.838;12.094;2023-06-01T04:41:21;18.10;31.30
18287;DHT22;9269;50.838;12.094;2023-06-01T04:43:50;18.10;31.10
18287;DHT22;9269;50.838;12.094;2023-06-01T04:46:20;18.20;29.80
18287;DHT22;9269;50.838;12.094;2023-06-01T04:48:51;18.10;31.00
18287;DHT22;9269;50.838;12.094;2023-06-01T04:51:20;18.30;29.70
18287;DHT22;9269;50.838;12.094;2023-06-01T04:53:50;18.30;29.40
18287;DHT22;9269;50.838;12.094;2023-06-01T04:56:21;18.30;29.50
18287;DHT22;9269;50.838;12.094;2023-06-01T04:58:52;18.30;29.80
18287;DHT22;9269;50.838;12.094;2023-06-01T05:01:22;18.50;29.30
18287;DHT22;9269;50.838;12.094;2023-06-01T05:03:53;18.50;29.40
18287;DHT22;9269;50.838;12.094;2023-06-01T05:06:23;18.60;29.50
18287;DHT22;9269;50.838;12.094;2023-06-01T05:08:53;18.60;29.60
18287;DHT22;9269;50.838;12.094;2023-06-01T05:11:24;18.70;29.40
18287;DHT22;9269;50.838;12.094;2023-06-01T05:13:53;18.80;28.90
18287;DHT22;9269;50.838;12.094;2023-06-01T05:16:25;18.90;29.20
18287;DHT22;9269;50.838;12.094;2023-06-01T05:18:54;19.00;29.30
18287;DHT22;9269;50.838;12.094;2023-06-01T05:21:23;18.90;28.90
18287;DHT22;9269;50.838;12.094;2023-06-01T05:23:52;19.00;28.80
18287;DHT22;9269;50.838;12.094;2023-06-01T05:26:20;19.10;28.90
18287;DHT22;9269;50.838;12.094;2023-06-01T05:28:50;19.20;28.70
18287;DHT22;9269;50.838;12.094;2023-06-01T05:31:19;19.30;28.80
18287;DHT22;9269;50.838;12.094;2023-06-01T05:33:49;19.40;28.70
18287;DHT22;9269;50.838;12.094;2023-06-01T05:36:18;19.40;28.70
18287;DHT22;9269;50.838;12.094;2023-06-01T05:38:47;19.50;28.90
18287;DHT22;9269;50.838;12.094;2023-06-01T05:41:15;19.60;28.60
18287;DHT22;9269;50.838;12.094;2023-06-01T05:43:44;19.70;28.60
18287;DHT22;9269;50.838;12.094;2023-06-01T05:46:14;19.80;28.50
18287;DHT22;9269;50.838;12.094;2023-06-01T05:48:42;19.80;28.60
18287;DHT22;9269;50.838;12.094;2023-06-01T05:51:11;19.90;28.40
18287;DHT22;9269;50.838;12.094;2023-06-01T05:53:41;20.10;28.40
18287;DHT22;9269;50.838;12.094;2023-06-01T05:56:10;20.20;28.40
18287;DHT22;9269;50.838;12.094;2023-06-01T05:58:39;20.30;28.20
18287;DHT22;9269;50.838;12.094;2023-06-01T06:01:08;20.40;28.10
18287;DHT22;9269;50.838;12.094;2023-06-01T06:03:38;20.50;28.20
18287;DHT22;9269;50.838;12.094;2023-06-01T06:06:07;20.60;28.10
18287;DHT22;9269;50.838;12.094;2023-06-01T06:08:36;20.60;28.20
18287;DHT22;9269;50.838;12.094;2023-06-01T06:11:05;20.90;27.00
18287;DHT22;9269;50.838;12.094;2023-06-01T06:13:34;21.00;27.20
18287;DHT22;9269;50.838;12.094;2023-06-01T06:16:03;21.00;26.80
18287;DHT22;9269;50.838;12.094;2023-06-01T06:18:32;21.20;27.10
18287;DHT22;9269;50.838;12.094;2023-06-01T06:21:01;21.30;27.10
18287;DHT22;9269;50.838;12.094;2023-06-01T06:23:30;21.50;26.70
18287;DHT22;9269;50.838;12.094;2023-06-01T06:26:00;21.60;26.80
18287;DHT22;9269;50.838;12.094;2023-06-01T06:28:28;21.70;26.40
18287;DHT22;9269;50.838;12.094;2023-06-01T06:30:58;21.80;25.80
18287;DHT22;9269;50.838;12.094;2023-06-01T06:33:27;21.80;26.00
18287;DHT22;9269;50.838;12.094;2023-06-01T06:35:56;21.90;26.00
18287;DHT22;9269;50.838;12.094;2023-06-01T06:38:25;22.00;25.90
18287;DHT22;9269;50.838;12.094;2023-06-01T06:40:54;22.10;26.20
18287;DHT22;9269;50.838;12.094;2023-06-01T06:43:25;22.20;26.00
18287;DHT22;9269;50.838;12.094;2023-06-01T06:45:53;22.30;26.20
18287;DHT22;9269;50.838;12.094;2023-06-01T06:48:22;22.50;26.30
18287;DHT22;9269;50.838;12.094;2023-06-01T06:50:52;22.50;26.70
18287;DHT22;9269;50.838;12.094;2023-06-01T06:53:20;22.50;26.00
18287;DHT22;9269;50.838;12.094;2023-06-01T06:55:50;22.70;25.50
18287;DHT22;9269;50.838;12.094;2023-06-01T06:58:19;22.70;25.60
18287;DHT22;9269;50.838;12.094;2023-06-01T07:00:47;22.90;25.40
18287;DHT22;9269;50.838;12.094;2023-06-01T07:03:16;23.00;25.60
18287;DHT22;9269;50.838;12.094;2023-06-01T07:05:45;23.10;24.90
18287;DHT22;9269;50.838;12.094;2023-06-01T07:08:15;23.20;24.10
18287;DHT22;9269;50.838;12.094;2023-06-01T07:10:44;23.30;24.10
18287;DHT22;9269;50.838;12.094;2023-06-01T07:13:14;23.40;24.30
18287;DHT22;9269;50.838;12.094;2023-06-01T07:15:42;23.40;24.00
18287;DHT22;9269;50.838;12.094;2023-06-01T07:18:13;23.50;23.50
18287;DHT22;9269;50.838;12.094;2023-06-01T07:20:42;23.60;23.50
18287;DHT22;9269;50.838;12.094;2023-06-01T07:23:11;23.70;22.10
18287;DHT22;9269;50.838;12.094;2023-06-01T07:25:40;23.70;22.00
18287;DHT22;9269;50.838;12.094;2023-06-01T07:28:09;23.70;21.90
18287;DHT22;9269;50.838;12.094;2023-06-01T07:30:39;23.90;21.90
18287;DHT22;9269;50.838;12.094;2023-06-01T07:33:07;24.00;22.20
18287;DHT22;9269;50.838;12.094;2023-06-01T07:35:37;23.90;21.80
18287;DHT22;9269;50.838;12.094;2023-06-01T07:38:05;24.00;21.00
18287;DHT22;9269;50.838;12.094;2023-06-01T07:40:34;24.10;21.50
18287;DHT22;9269;50.838;12.094;2023-06-01T07:43:05;24.20;21.50
18287;DHT22;9269;50.838;12.094;2023-06-01T07:45:34;24.30;21.00
18287;DHT22;9269;50.838;12.094;2023-06-01T07:48:04;24.30;21.20
18287;DHT22;9269;50.838;12.094;2023-06-01T07:50:36;24.40;21.30
18287;DHT22;9269;50.838;12.094;2023-06-01T07:53:05;24.40;21.20
18287;DHT22;9269;50.838;12.094;2023-06-01T07:55:33;24.50;21.10
18287;DHT22;9269;50.838;12.094;2023-06-01T07:58:03;24.50;21.50
18287;DHT22;9269;50.838;12.094;2023-06-01T08:00:32;24.60;20.50
18287;DHT22;9269;50.838;12.094;2023-06-01T08:03:03;24.70;20.20
18287;DHT22;9269;50.838;12.094;2023-06-01T08:05:34;24.80;20.20
18287;DHT22;9269;50.838;12.094;2023-06-01T08:08:05;24.90;19.60
18287;DHT22;9269;50.838;12.094;2023-06-01T08:10:33;24.90;19.50
18287;DHT22;9269;50.838;12.094;2023-06-01T08:13:02;25.20;19.40
18287;DHT22;9269;50.838;12.094;2023-06-01T08:15:31;25.20;20.00
18287;DHT22;9269;50.838;12.094;2023-06-01T08:18:01;25.30;19.80
18287;DHT22;9269;50.838;12.094;2023-06-01T08:20:31;25.30;20.50
18287;DHT22;9269;50.838;12.094;2023-06-01T08:23:00;25.40;20.70
18287;DHT22;9269;50.838;12.094;2023-06-01T08:25:30;25.70;19.80
18287;DHT22;9269;50.838;12.094;2023-06-01T08:27:58;25.80;19.80
18287;DHT22;9269;50.838;12.094;2023-06-01T08:30:27;26.00;20.00
18287;DHT22;9269;50.838;12.094;2023-06-01T08:32:55;26.10;19.70
18287;DHT22;9269;50.838;12.094;2023-06-01T08:35:24;26.20;18.70
18287;DHT22;9269;50.838;12.094;2023-06-01T08:37:54;26.30;19.30
18287;DHT22;9269;50.838;12.094;2023-06-01T08:40:23;26.40;17.90
18287;DHT22;9269;50.838;12.094;2023-06-01T08:42:57;26.50;17.70
18287;DHT22;9269;50.838;12.094;2023-06-01T08:45:28;26.50;18.10
18287;DHT22;9269;50.838;12.094;2023-06-01T08:47:58;26.60;18.10
18287;DHT22;9269;50.838;12.094;2023-06-01T08:50:27;26.80;18.60
18287;DHT22;9269;50.838;12.094;2023-06-01T08:52:59;26.70;17.80
18287;DHT22;9269;50.838;12.094;2023-06-01T08:55:28;26.70;17.90
18287;DHT22;9269;50.838;12.094;2023-06-01T08:57:57;26.90;17.60
18287;DHT22;9269;50.838;12.094;2023-06-01T09:00:26;26.90;17.30
18287;DHT22;9269;50.838;12.094;2023-06-01T09:02:56;27.20;17.20
18287;DHT22;9269;50.838;12.094;2023-06-01T09:05:26;27.30;16.60
18287;DHT22;9269;50.838;12.094;2023-06-01T09:07:54;27.30;16.50
18287;DHT22;9269;50.838;12.094;2023-06-01T09:10:25;27.30;16.70
18287;DHT22;9269;50.838;12.094;2023-06-01T09:12:54;27.50;17.20
18287;DHT22;9269;50.838;12.094;2023-06-01T09:15:23;27.60;16.20
18287;DHT22;9269;50.838;12.094;2023-06-01T09:18:05;27.70;16.50
18287;DHT22;9269;50.838;12.094;2023-06-01T09:20:34;28.00;16.30
18287;DHT22;9269;50.838;12.094;2023-06-01T09:23:04;28.10;16.60
18287;DHT22;9269;50.838;12.094;2023-06-01T09:25:35;28.10;16.70
18287;DHT22;9269;50.838;12.094;2023-06-01T09:28:04;28.20;15.90
18287;DHT22;9269;50.838;12.094;2023-06-01T09:30:40;28.30;15.30
18287;DHT22;9269;50.838;12.094;2023-06-01T09:33:12;28.40;15.40
18287;DHT22;9269;50.838;12.094;2023-06-01T09:35:43;28.40;15.60
18287;DHT22;9269;50.838;12.094;2023-06-01T09:38:20;28.50;15.20
18287;DHT22;9269;50.838;12.094;2023-06-01T09:40:58;28.60;15.00
18287;DHT22;9269;50.838;12.094;2023-06-01T09:43:27;28.70;15.00
18287;DHT22;9269;50.838;12.094;2023-06-01T09:46:04;28.60;14.70
18287;DHT22;9269;50.838;12.094;2023-06-01T09:48:34;28.70;15.10
18287;DHT22;9269;50.838;12.094;2023-06-01T09:51:04;28.80;14.20
18287;DHT22;9269;50.838;12.094;2023-06-01T09:53:40;29.00;14.60
18287;DHT22;9269;50.838;12.094;2023-06-01T09:56:10;29.10;15.10
18287;DHT22;9269;50.838;12.094;2023-06-01T09:58:39;29.20;15.00
18287;DHT22;9269;50.838;12.094;2023-06-01T10:01:08;29.40;15.00
18287;DHT22;9269;50.838;12.094;2023-06-01T10:03:41;29.50;15.30
18287;DHT22;9269;50.838;12.094;2023-06-01T10:06:11;29.70;15.20
18287;DHT22;9269;50.838;12.094;2023-06-01T10:08:42;29.80;15.00
18287;DHT22;9269;50.838;12.094;2023-06-01T10:11:12;29.90;14.70
18287;DHT22;9269;50.838;12.094;2023-06-01T10:13:41;29.80;14.90
18287;DHT22;9269;50.838;12.094;2023-06-01T10:16:10;29.80;15.00
18287;DHT22;9269;50.838;12.094;2023-06-01T10:18:41;29.90;14.60
18287;DHT22;9269;50.838;12.094;2023-06-01T10:21:11;30.00;14.30
18287;DHT22;9269;50.838;12.094;2023-06-01T10:23:40;30.20;14.50
18287;DHT22;9269;50.838;12.094;2023-06-01T10:26:13;30.40;14.20
18287;DHT22;9269;50.838;12.094;2023-06-01T10:28:45;30.50;13.00
18287;DHT22;9269;50.838;12.094;2023-06-01T10:31:35;30.70;12.50
18287;DHT22;9269;50.838;12.094;2023-06-01T10:34:04;30.70;13.20
18287;DHT22;9269;50.838;12.094;2023-06-01T10:37:14;30.70;13.20
18287;DHT22;9269;50.838;12.094;2023-06-01T10:39:43;30.90;12.30
18287;DHT22;9269;50.838;12.094;2023-06-01T10:42:38;30.90;12.10
18287;DHT22;9269;50.838;12.094;2023-06-01T10:47:54;31.20;11.80
18287;DHT22;9269;50.838;12.094;2023-06-01T10:50:22;31.30;11.90
18287;DHT22;9269;50.838;12.094;2023-06-01T10:52:51;31.30;10.90
18287;DHT22;9269;50.838;12.094;2023-06-01T10:55:24;31.40;10.10
18287;DHT22;9269;50.838;12.094;2023-06-01T10:58:21;31.30;10.40
18287;DHT22;9269;50.838;12.094;2023-06-01T11:00:56;31.20;9.30
18287;DHT22;9269;50.838;12.094;2023-06-01T11:03:45;31.10;9.60
18287;DHT22;9269;50.838;12.094;2023-06-01T11:06:24;31.00;9.90
18287;DHT22;9269;50.838;12.094;2023-06-01T11:08:56;31.10;9.90
18287;DHT22;9269;50.838;12.094;2023-06-01T11:11:58;31.20;10.30
18287;DHT22;9269;50.838;12.094;2023-06-01T11:14:29;31.50;10.60
18287;DHT22;9269;50.838;12.094;2023-06-01T11:17:26;31.80;9.90
18287;DHT22;9269;50.838;12.094;2023-06-01T11:20:16;31.80;9.60
18287;DHT22;9269;50.838;12.094;2023-06-01T11:22:48;31.90;10.00
18287;DHT22;9269;50.838;12.094;2023-06-01T11:25:17;31.70;10.20
18287;DHT22;9269;50.838;12.094;2023-06-01T11:27:45;31.60;10.60
18287;DHT22;9269;50.838;12.094;2023-06-01T11:30:19;31.50;10.20
18287;DHT22;9269;50.838;12.094;2023-06-01T11:32:52;31.30;10.80
18287;DHT22;9269;50.838;12.094;2023-06-01T11:35:21;31.40;10.50
18287;DHT22;9269;50.838;12.094;2023-06-01T11:37:54;31.50;11.40
18287;DHT22;9269;50.838;12.094;2023-06-01T11:40:24;31.70;11.00
18287;DHT22;9269;50.838;12.094;2023-06-01T11:42:59;31.80;10.70
18287;DHT22;9269;50.838;12.094;2023-06-01T11:45:29;31.60;10.30
18287;DHT22;9269;50.838;12.094;2023-06-01T11:47:57;31.40;9.90
18287;DHT22;9269;50.838;12.094;2023-06-01T11:50:37;31.20;10.30
18287;DHT22;9269;50.838;12.094;2023-06-01T11:53:14;31.10;10.70
18287;DHT22;9269;50.838;12.094;2023-06-01T11:55:48;31.10;11.20
18287;DHT22;9269;50.838;12.094;2023-06-01T11:58:21;31.00;10.80
18287;DHT22;9269;50.838;12.094;2023-06-01T12:00:51;31.00;10.80
18287;DHT22;9269;50.838;12.094;2023-06-01T12:03:20;31.00;11.10
18287;DHT22;9269;50.838;12.094;2023-06-01T12:05:51;31.00;11.20
18287;DHT22;9269;50.838;12.094;2023-06-01T12:08:22;31.00;11.00
18287;DHT22;9269;50.838;12.094;2023-06-01T12:10:54;31.00;10.90
18287;DHT22;9269;50.838;12.094;2023-06-01T12:13:23;31.20;10.90
18287;DHT22;9269;50.838;12.094;2023-06-01T12:15:53;31.30;10.20
18287;DHT22;9269;50.838;12.094;2023-06-01T12:18:31;31.40;10.40
18287;DHT22;9269;50.838;12.094;2023-06-01T12:21:00;31.40;10.70
18287;DHT22;9269;50.838;12.094;2023-06-01T12:23:36;31.30;11.00
18287;DHT22;9269;50.838;12.094;2023-06-01T12:26:05;31.20;10.90
18287;DHT22;9269;50.838;12.094;2023-06-01T12:28:47;31.20;11.50
18287;DHT22;9269;50.838;12.094;2023-06-01T12:31:20;31.20;11.50
18287;DHT22;9269;50.838;12.094;2023-06-01T12:33:49;31.20;11.40
18287;DHT22;9269;50.838;12.094;2023-06-01T12:36:31;31.30;11.10
18287;DHT22;9269;50.838;12.094;2023-06-01T12:39:01;31.40;11.40
18287;DHT22;9269;50.838;12.094;2023-06-01T12:41:31;31.60;11.60
18287;DHT22;9269;50.838;12.094;2023-06-01T12:43:59;31.70;11.10
18287;DHT22;9269;50.838;12.094;2023-06-01T12:46:30;31.70;10.80
18287;DHT22;9269;50.838;12.094;2023-06-01T12:49:14;31.90;10.60
18287;DHT22;9269;50.838;12.094;2023-06-01T12:51:43;31.80;10.50
18287;DHT22;9269;50.838;12.094;2023-06-01T12:54:15;31.80;10.70
18287;DHT22;9269;50.838;12.094;2023-06-01T12:56:47;31.80;10.80
18287;DHT22;9269;50.838;12.094;2023-06-01T12:59:21;31.80;11.40
18287;DHT22;9269;50.838;12.094;2023-06-01T13:01:51;31.90;10.50
18287;DHT22;9269;50.838;12.094;2023-06-01T13:04:21;32.00;10.30
18287;DHT22;9269;50.838;12.094;2023-06-01T13:06:50;32.00;9.90
18287;DHT22;9269;50.838;12.094;2023-06-01T13:09:19;32.00;9.90
18287;DHT22;9269;50.838;12.094;2023-06-01T13:11:48;32.20;9.10
18287;DHT22;9269;50.838;12.094;2023-06-01T13:14:17;32.20;9.80
18287;DHT22;9269;50.838;12.094;2023-06-01T13:16:46;32.20;9.90
18287;DHT22;9269;50.838;12.094;2023-06-01T13:19:16;32.40;10.00
18287;DHT22;9269;50.838;12.094;2023-06-01T13:21:45;32.40;10.30
18287;DHT22;9269;50.838;12.094;2023-06-01T13:24:14;32.40;9.80
18287;DHT22;9269;50.838;12.094;2023-06-01T13:26:42;32.50;10.00
18287;DHT22;9269;50.838;12.094;2023-06-01T13:29:11;32.40;10.20
18287;DHT22;9269;50.838;12.094;2023-06-01T13:31:40;32.50;9.40
18287;DHT22;9269;50.838;12.094;2023-06-01T13:34:09;32.40;9.80
18287;DHT22;9269;50.838;12.094;2023-06-01T13:36:40;32.40;9.80
18287;DHT22;9269;50.838;12.094;2023-06-01T13:39:08;32.30;10.10
18287;DHT22;9269;50.838;12.094;2023-06-01T13:41:37;32.40;9.50
18287;DHT22;9269;50.838;12.094;2023-06-01T13:44:07;32.40;9.80
18287;DHT22;9269;50.838;12.094;2023-06-01T13:46:35;32.50;9.40
18287;DHT22;9269;50.838;12.094;2023-06-01T13:49:05;32.50;8.90
18287;DHT22;9269;50.838;12.094;2023-06-01T13:51:34;32.40;9.30
18287;DHT22;9269;50.838;12.094;2023-06-01T13:54:07;32.30;8.90
18287;DHT22;9269;50.838;12.094;2023-06-01T13:56:35;32.30;9.30
18287;DHT22;9269;50.838;12.094;2023-06-01T13:59:05;32.20;9.50
18287;DHT22;9269;50.838;12.094;2023-06-01T14:01:33;32.30;9.40
18287;DHT22;9269;50.838;12.094;2023-06-01T14:04:02;32.40;9.40
18287;DHT22;9269;50.838;12.094;2023-06-01T14:06:31;32.30;9.20
18287;DHT22;9269;50.838;12.094;2023-06-01T14:09:01;32.20;8.90
18287;DHT22;9269;50.838;12.094;2023-06-01T14:11:31;32.20;9.30
18287;DHT22;9269;50.838;12.094;2023-06-01T14:14:00;32.00;9.30
18287;DHT22;9269;50.838;12.094;2023-06-01T14:16:28;31.80;9.70
18287;DHT22;9269;50.838;12.094;2023-06-01T14:18:58;31.70;9.60
18287;DHT22;9269;50.838;12.094;2023-06-01T14:21:30;31.60;10.20
18287;DHT22;9269;50.838;12.094;2023-06-01T14:23:59;31.60;10.60
18287;DHT22;9269;50.838;12.094;2023-06-01T14:26:28;31.50;10.80
18287;DHT22;9269;50.838;12.094;2023-06-01T14:28:59;31.40;10.80
18287;DHT22;9269;50.838;12.094;2023-06-01T14:31:30;31.40;11.00
18287;DHT22;9269;50.838;12.094;2023-06-01T14:33:59;31.40;11.00
18287;DHT22;9269;50.838;12.094;2023-06-01T14:36:28;31.30;11.30
18287;DHT22;9269;50.838;12.094;2023-06-01T14:39:13;31.40;11.30
18287;DHT22;9269;50.838;12.094;2023-06-01T14:41:42;31.40;11.40
18287;DHT22;9269;50.838;12.094;2023-06-01T14:44:13;31.40;11.80
18287;DHT22;9269;50.838;12.094;2023-06-01T14:46:41;31.50;11.90
18287;DHT22;9269;50.838;12.094;2023-06-01T14:49:10;31.50;11.90
18287;DHT22;9269;50.838;12.094;2023-06-01T14:51:40;31.50;11.30
18287;DHT22;9269;50.838;12.094;2023-06-01T14:54:10;31.40;11.50
18287;DHT22;9269;50.838;12.094;2023-06-01T14:56:44;31.40;11.10
18287;DHT22;9269;50.838;12.094;2023-06-01T14:59:16;31.30;11.30
18287;DHT22;9269;50.838;12.094;2023-06-01T15:01:45;31.30;11.30
18287;DHT22;9269;50.838;12.094;2023-06-01T15:04:14;31.20;11.50
18287;DHT22;9269;50.838;12.094;2023-06-01T15:06:42;31.40;11.30
18287;DHT22;9269;50.838;12.094;2023-06-01T15:09:11;31.30;11.00
18287;DHT22;9269;50.838;12.094;2023-06-01T15:11:40;31.20;11.10
18287;DHT22;9269;50.838;12.094;2023-06-01T15:14:09;31.20;11.20
18287;DHT22;9269;50.838;12.094;2023-06-01T15:16:43;31.20;10.80
18287;DHT22;9269;50.838;12.094;2023-06-01T15:19:11;31.20;11.10
18287;DHT22;9269;50.838;12.094;2023-06-01T15:21:40;31.10;11.00
18287;DHT22;9269;50.838;12.094;2023-06-01T15:24:09;31.10;10.60
18287;DHT22;9269;50.838;12.094;2023-06-01T15:26:38;31.10;11.20
18287;DHT22;9269;50.838;12.094;2023-06-01T15:29:10;31.10;11.00
18287;DHT22;9269;50.838;12.094;2023-06-01T15:31:44;31.10;11.30
18287;DHT22;9269;50.838;12.094;2023-06-01T15:34:12;31.10;11.60
18287;DHT22;9269;50.838;12.094;2023-06-01T15:36:41;31.10;11.30
18287;DHT22;9269;50.838;12.094;2023-06-01T15:39:11;31.00;12.00
18287;DHT22;9269;50.838;12.094;2023-06-01T15:41:40;31.10;12.10
18287;DHT22;9269;50.838;12.094;2023-06-01T15:44:09;31.00;12.40
18287;DHT22;9269;50.838;12.094;2023-06-01T15:46:38;30.90;12.70
18287;DHT22;9269;50.838;12.094;2023-06-01T15:49:08;30.90;12.70
18287;DHT22;9269;50.838;12.094;2023-06-01T15:51:37;30.80;13.10
18287;DHT22;9269;50.838;12.094;2023-06-01T15:54:05;30.80;12.70
18287;DHT22;9269;50.838;12.094;2023-06-01T15:56:34;30.70;13.10
18287;DHT22;9269;50.838;12.094;2023-06-01T15:59:03;30.70;13.00
18287;DHT22;9269;50.838;12.094;2023-06-01T16:01:32;30.60;13.30